Time;durP1;ratioP1;P1;durP2;ratioP2;P2;SDS_P1;SDS_P2;PMS_P1;PMS_P2;Temp;Humidity;BMP_temperature;BMP_pressure;BME280_temperature;BME280_humidity;BME280_pressure;Samples;Min_cycle;Max_cycle;Signal;HPM_P1;HPM_P2
2022/07/05 00:04:28;;;;;;;0.45;0.40;;;18.10;59.50;20.30;94255.00;;;;10436043;28;45276;-63
2022/07/05 00:09:50;;;;;;;0.60;0.55;;;18.10;59.50;20.30;94252.00;;;;10435799;28;45863;-64
2022/07/05 00:15:12;;;;;;;0.95;0.47;;;18.10;59.50;20.30;94243.00;;;;10435794;28;45322;-63
2022/07/05 00:20:32;;;;;;;0.60;0.45;;;18.10;59.60;20.30;94247.00;;;;10435739;28;45246;-64
2022/07/05 00:25:53;;;;;;;0.40;0.40;;;18.10;59.50;20.20;94250.00;;;;10435121;28;45148;-64
2022/07/05 00:31:15;;;;;;;0.45;0.40;;;18.10;59.50;20.20;94248.00;;;;10435095;28;45230;-64
2022/07/05 00:36:36;;;;;;;0.70;0.50;;;18.10;59.50;20.20;94245.00;;;;10437156;28;45110;-64
2022/07/05 00:41:57;;;;;;;1.42;0.70;;;18.10;59.50;20.20;94252.00;;;;10442325;28;45184;-65
2022/07/05 00:47:18;;;;;;;0.40;0.40;;;18.10;59.50;20.20;94245.00;;;;10442004;28;45350;-65
2022/07/05 00:52:39;;;;;;;0.52;0.40;;;18.10;59.50;20.20;94246.00;;;;10441109;28;45152;-65
2022/07/05 00:57:59;;;;;;;0.60;0.50;;;18.10;59.50;20.20;94241.00;;;;10440174;28;45920;-65
2022/07/05 01:03:21;;;;;;;0.30;0.30;;;18.10;59.50;20.20;94241.00;;;;10435732;28;45696;-65
2022/07/05 01:08:43;;;;;;;0.77;0.50;;;18.10;59.50;20.20;94228.00;;;;10440026;28;45905;-65
2022/07/05 01:14:03;;;;;;;0.40;0.40;;;18.10;59.50;20.20;94236.00;;;;10440385;28;45797;-65
2022/07/05 01:19:25;;;;;;;0.52;0.40;;;18.10;59.50;20.20;94236.00;;;;10441030;28;45801;-65
2022/07/05 01:24:49;;;;;;;0.50;0.50;;;18.10;59.50;20.20;94225.00;;;;10440793;28;45491;-65
2022/07/05 01:30:11;;;;;;;0.55;0.55;;;18.00;59.40;20.20;94234.00;;;;10440449;28;45109;-65
2022/07/05 01:35:32;;;;;;;0.40;0.40;;;18.10;59.50;20.20;94222.00;;;;10440563;28;45209;-65
2022/07/05 01:40:54;;;;;;;0.30;0.30;;;18.10;60.20;20.20;94223.00;;;;10440286;28;45872;-65
2022/07/05 01:46:18;;;;;;;0.50;0.47;;;18.10;59.50;20.20;94237.00;;;;10439420;28;45793;-64
2022/07/05 01:51:46;;;;;;;0.40;0.40;;;18.00;59.50;20.20;94232.00;;;;10439234;28;45781;-65
2022/07/05 01:57:09;;;;;;;0.93;0.43;;;18.10;59.50;20.20;94233.00;;;;10439392;28;45098;-65
2022/07/05 02:02:29;;;;;;;1.08;0.50;;;18.00;59.40;20.20;94223.00;;;;10439949;28;45863;-65
2022/07/05 02:07:50;;;;;;;0.47;0.40;;;18.10;59.50;20.20;94228.00;;;;10439567;28;45212;-64
2022/07/05 02:13:14;;;;;;;1.10;0.52;;;18.10;59.50;20.20;94232.00;;;;10438856;28;45677;-65
2022/07/05 02:18:35;;;;;;;0.60;0.40;;;18.00;59.40;20.20;94227.00;;;;10438657;28;45389;-65
2022/07/05 02:23:56;;;;;;;1.45;0.60;;;18.10;59.50;20.20;94236.00;;;;10438828;28;45758;-65
2022/07/05 02:29:18;;;;;;;0.50;0.50;;;18.00;59.40;20.20;94237.00;;;;10438467;28;45925;-64
2022/07/05 02:34:38;;;;;;;0.55;0.50;;;18.00;59.50;20.20;94254.00;;;;10438899;28;46136;-65
2022/07/05 02:39:59;;;;;;;0.47;0.40;;;18.00;59.40;20.20;94225.00;;;;10438397;28;45157;-64
2022/07/05 02:45:21;;;;;;;0.50;0.50;;;18.00;59.40;20.20;94255.00;;;;10437149;28;45789;-64
2022/07/05 02:50:42;;;;;;;0.50;0.50;;;18.00;59.40;20.20;94261.00;;;;10437983;28;45240;-65
2022/07/05 02:56:03;;;;;;;0.50;0.50;;;18.00;59.40;20.20;94261.00;;;;10437795;28;45185;-65
2022/07/05 03:01:25;;;;;;;0.45;0.40;;;18.00;59.40;20.20;94250.00;;;;10436759;28;45189;-64
2022/07/05 03:06:46;;;;;;;0.40;0.40;;;18.00;59.50;20.20;94268.00;;;;10436515;28;45167;-64
2022/07/05 03:12:08;;;;;;;0.57;0.50;;;18.00;59.40;20.20;94266.00;;;;10437230;28;45160;-64
2022/07/05 03:17:29;;;;;;;0.50;0.50;;;18.00;59.50;20.20;94257.00;;;;10437271;28;45189;-64
2022/07/05 03:22:50;;;;;;;0.75;0.40;;;18.00;59.40;20.20;94269.00;;;;10437129;28;45258;-64
2022/07/05 03:28:11;;;;;;;1.50;0.47;;;18.00;59.40;20.20;94266.00;;;;10436722;28;45394;-65
2022/07/05 03:33:33;;;;;;;0.93;0.50;;;18.00;59.50;20.20;94263.00;;;;10436550;28;45275;-65
2022/07/05 03:38:53;;;;;;;0.63;0.60;;;18.00;59.60;20.20;94265.00;;;;10436599;28;45156;-65
2022/07/05 03:44:14;;;;;;;0.50;0.50;;;18.00;59.50;20.20;94264.00;;;;10436456;28;45311;-65
2022/07/05 03:49:36;;;;;;;1.13;0.65;;;18.00;59.40;20.20;94277.00;;;;10436272;28;45100;-65
2022/07/05 03:54:56;;;;;;;0.70;0.50;;;18.00;59.40;20.20;94277.00;;;;10436324;28;45103;-65
2022/07/05 04:00:17;;;;;;;0.80;0.50;;;18.00;59.40;20.20;94278.00;;;;10435658;28;45752;-64
2022/07/05 04:05:39;;;;;;;0.63;0.50;;;18.00;59.40;20.20;94285.00;;;;10435501;28;45122;-64
2022/07/05 04:10:59;;;;;;;0.80;0.60;;;18.00;59.40;20.20;94288.00;;;;10437154;28;45213;-64
2022/07/05 04:16:20;;;;;;;0.40;0.40;;;18.00;59.40;20.20;94287.00;;;;10442837;28;45180;-65
2022/07/05 04:21:42;;;;;;;0.50;0.50;;;18.00;59.40;20.10;94276.00;;;;10442745;28;45221;-65
2022/07/05 04:27:03;;;;;;;1.77;0.47;;;18.00;59.40;20.10;94288.00;;;;10442659;28;45373;-65
2022/07/05 04:32:24;;;;;;;0.70;0.50;;;18.00;59.40;20.20;94289.00;;;;10442697;28;45216;-65
2022/07/05 04:37:46;;;;;;;0.90;0.70;;;18.00;59.40;20.10;94281.00;;;;10442431;28;45211;-64
2022/07/05 04:43:07;;;;;;;0.50;0.50;;;18.00;59.30;20.10;94287.00;;;;10441836;28;45188;-64
2022/07/05 04:48:27;;;;;;;0.40;0.40;;;18.00;59.30;20.10;94282.00;;;;10441745;28;45375;-65
2022/07/05 04:53:49;;;;;;;0.50;0.40;;;18.00;59.30;20.20;94295.00;;;;10442020;28;46026;-65
2022/07/05 04:59:10;;;;;;;0.45;0.40;;;18.00;59.30;20.20;94304.00;;;;10441319;28;45863;-64
2022/07/05 05:04:30;;;;;;;0.45;0.45;;;18.00;59.30;20.10;94291.00;;;;10441456;28;45209;-65
2022/07/05 05:09:52;;;;;;;0.60;0.60;;;18.00;59.30;20.20;94312.00;;;;10441024;28;45221;-64
2022/07/05 05:15:13;;;;;;;0.73;0.60;;;18.00;59.30;20.10;94299.00;;;;10441286;28;45243;-65
2022/07/05 05:20:34;;;;;;;1.30;0.60;;;18.00;59.40;20.10;94311.00;;;;10440939;28;45351;-65
2022/07/05 05:25:55;;;;;;;0.70;0.50;;;18.00;59.40;20.10;94318.00;;;;10439874;28;45182;-64
2022/07/05 05:31:17;;;;;;;0.60;0.60;;;18.00;59.30;20.10;94317.00;;;;10441152;28;45294;-64
2022/07/05 05:36:37;;;;;;;1.00;0.40;;;18.00;59.30;20.10;94308.00;;;;10440198;28;45108;-65
2022/07/05 05:41:59;;;;;;;0.73;0.60;;;18.00;59.30;20.10;94316.00;;;;10440103;28;45157;-65
2022/07/05 05:47:20;;;;;;;0.75;0.50;;;18.00;59.40;20.10;94311.00;;;;10464254;22;46130;-63
2022/07/05 05:52:40;;;;;;;0.47;0.43;;;18.00;59.30;20.10;94318.00;;;;10439608;28;45181;-63
2022/07/05 05:58:13;;;;;;;0.77;0.57;;;18.00;59.30;20.10;94322.00;;;;10397999;28;45164;-63
2022/07/05 06:03:34;;;;;;;0.45;0.45;;;18.00;59.40;20.10;94337.00;;;;10398202;28;45179;-62
2022/07/05 06:08:54;;;;;;;0.47;0.40;;;18.00;59.30;20.10;94343.00;;;;10397873;28;45195;-64
2022/07/05 06:14:16;;;;;;;0.77;0.47;;;18.00;59.30;20.10;94345.00;;;;10396924;28;45844;-62
2022/07/05 06:19:37;;;;;;;0.55;0.50;;;18.00;59.30;20.10;94328.00;;;;10397635;28;45112;-61
2022/07/05 06:24:57;;;;;;;0.40;0.40;;;18.00;59.30;20.10;94346.00;;;;10397928;28;45197;-61
2022/07/05 06:30:22;;;;;;;0.80;0.60;;;18.00;59.30;20.10;94342.00;;;;10397341;28;45252;-62
2022/07/05 06:35:43;;;;;;;0.85;0.50;;;18.00;59.30;20.10;94351.00;;;;10397011;28;45229;-63
2022/07/05 06:41:03;;;;;;;0.43;0.40;;;18.00;59.30;20.10;94349.00;;;;10397389;28;45196;-63
2022/07/05 06:46:25;;;;;;;0.65;0.50;;;18.00;59.30;20.10;94355.00;;;;10396367;28;45277;-62
2022/07/05 06:51:46;;;;;;;0.40;0.40;;;18.00;59.30;20.10;94353.00;;;;10395189;28;45713;-62
2022/07/05 06:57:07;;;;;;;0.60;0.52;;;17.90;59.30;20.10;94366.00;;;;10396572;28;46329;-63
2022/07/05 07:02:29;;;;;;;0.40;0.28;;;18.00;59.30;20.10;94362.00;;;;10396668;28;45229;-62
2022/07/05 07:13:28;;;;;;;0.90;0.50;;;17.90;59.30;20.10;94373.00;;;;10386705;28;45833;-62
2022/07/05 07:18:50;;;;;;;0.65;0.50;;;18.00;59.40;20.10;94369.00;;;;10395513;28;45134;-62
2022/07/05 07:24:12;;;;;;;0.45;0.45;;;18.00;59.40;20.10;94373.00;;;;10395948;28;45203;-63
2022/07/05 07:29:35;;;;;;;0.50;0.50;;;18.00;59.40;20.10;94371.00;;;;10395896;28;45763;-63
2022/07/05 07:34:56;;;;;;;1.73;0.50;;;18.00;59.40;20.20;94382.00;;;;10395540;28;45237;-63
2022/07/05 07:40:17;;;;;;;0.77;0.50;;;18.00;59.40;20.10;94377.00;;;;10393040;28;45653;-64
2022/07/05 07:45:38;;;;;;;2.30;0.57;;;18.00;59.40;20.20;94384.00;;;;10393066;28;45173;-63
2022/07/05 07:51:00;;;;;;;0.45;0.45;;;18.00;59.30;20.20;94386.00;;;;10395259;28;45164;-63
2022/07/05 07:56:21;;;;;;;0.60;0.50;;;18.00;59.50;20.20;94373.00;;;;10394378;28;45463;-62
2022/07/05 08:01:41;;;;;;;3.63;0.50;;;18.00;59.50;20.20;94364.00;;;;10394746;28;45752;-62
2022/07/05 08:07:04;;;;;;;0.63;0.47;;;18.00;59.50;20.20;94371.00;;;;10393855;28;45452;-63
2022/07/05 08:12:25;;;;;;;1.25;0.60;;;18.00;59.60;20.20;94383.00;;;;10394682;28;45155;-64
2022/07/05 08:23:21;;;;;;;3.00;0.60;;;18.10;59.60;20.30;94377.00;;;;10392823;28;45348;-64
2022/07/05 08:28:41;;;;;;;4.28;1.08;;;18.10;59.70;20.30;94379.00;;;;10393525;28;45228;-59
2022/07/05 08:34:03;;;;;;;4.35;0.80;;;18.20;59.80;20.40;94389.00;;;;10393947;28;45373;-62
2022/07/05 08:39:25;;;;;;;5.93;1.10;;;18.20;60.30;20.40;94372.00;;;;10393488;28;45167;-65
2022/07/05 08:44:50;;;;;;;11.95;1.30;;;18.20;60.80;20.40;94385.00;;;;10393267;28;45219;-62
2022/07/05 08:50:14;;;;;;;12.90;1.17;;;18.30;60.40;20.40;94367.00;;;;10393295;28;45876;-60
2022/07/05 08:55:35;;;;;;;7.53;1.23;;;18.30;60.10;20.50;94389.00;;;;10349289;28;45205;-59
2022/07/05 09:00:56;;;;;;;10.30;1.13;;;18.40;60.20;20.50;94374.00;;;;10357957;28;45260;-60
2022/07/05 09:06:20;;;;;;;7.13;1.20;;;18.30;60.10;20.50;94385.00;;;;10361850;28;45165;-61
2022/07/05 09:11:42;;;;;;;8.68;1.17;;;18.40;60.20;20.50;94381.00;;;;10359288;28;45749;-63
2022/07/05 09:17:04;;;;;;;5.57;1.13;;;18.40;60.20;20.50;94390.00;;;;10358554;28;45662;-60
2022/07/05 09:22:25;;;;;;;5.78;1.05;;;18.40;59.90;20.50;94381.00;;;;10397941;28;45297;-60
2022/07/05 09:27:53;;;;;;;6.60;0.80;;;18.40;60.10;20.60;94387.00;;;;10398615;28;45295;-61
2022/07/05 09:33:16;;;;;;;6.28;0.90;;;18.50;60.00;20.60;94383.00;;;;10398487;28;45166;-60
2022/07/05 09:38:37;;;;;;;3.63;0.70;;;18.50;60.00;20.60;94396.00;;;;10398175;28;45210;-61
2022/07/05 09:43:58;;;;;;;4.78;0.80;;;18.50;60.00;20.60;94401.00;;;;10383387;28;45283;-62
2022/07/05 09:49:26;;;;;;;2.65;1.00;;;18.50;59.80;20.60;94383.00;;;;10373661;28;45145;-61
2022/07/05 09:55:02;;;;;;;5.20;1.10;;;18.50;60.60;20.70;94377.00;;;;10357041;28;45143;-61
2022/07/05 10:00:25;;;;;;;5.03;0.80;;;18.50;60.20;20.70;94383.00;;;;10355694;28;45757;-61
2022/07/05 10:05:45;;;;;;;6.57;1.10;;;18.50;60.30;20.70;94395.00;;;;10355600;28;45173;-61
2022/07/05 10:11:06;;;;;;;5.82;0.75;;;18.60;60.60;20.70;94382.00;;;;10355949;28;45179;-62
2022/07/05 10:16:28;;;;;;;5.82;0.77;;;18.60;59.80;20.70;94380.00;;;;10355318;28;45042;-61
2022/07/05 10:21:49;;;;;;;5.13;1.10;;;18.60;59.70;20.70;94389.00;;;;10355622;28;45383;-62
2022/07/05 10:27:10;;;;;;;4.07;0.68;;;18.60;59.50;20.70;94377.00;;;;10355313;28;45211;-60
2022/07/05 10:32:34;;;;;;;3.58;0.75;;;18.60;59.80;20.70;94387.00;;;;10355980;28;45145;-61
2022/07/05 10:37:55;;;;;;;3.70;0.70;;;18.60;59.80;20.70;94393.00;;;;10356356;28;45260;-61
2022/07/05 10:43:17;;;;;;;2.00;0.80;;;18.60;59.70;20.70;94391.00;;;;10387276;28;45288;-61
2022/07/05 10:48:39;;;;;;;1.48;0.60;;;18.60;59.70;20.70;94385.00;;;;10395817;28;45188;-62
2022/07/05 10:54:03;;;;;;;3.17;0.75;;;18.60;59.70;20.70;94399.00;;;;10395684;28;45445;-61
2022/07/05 10:59:24;;;;;;;2.83;0.63;;;18.60;59.60;20.70;94379.00;;;;10395292;28;45237;-61
2022/07/05 11:04:46;;;;;;;2.30;0.80;;;18.70;59.70;20.70;94387.00;;;;10394824;28;45433;-60
2022/07/05 11:10:07;;;;;;;3.05;0.80;;;18.60;59.70;20.80;94396.00;;;;10371915;28;45160;-67
2022/07/05 11:15:28;;;;;;;2.45;0.82;;;18.60;60.00;20.80;94382.00;;;;10353799;28;45086;-62
2022/07/05 11:20:50;;;;;;;3.28;0.90;;;18.70;59.10;20.80;94380.00;;;;10353341;28;45775;-62
2022/07/05 11:26:12;;;;;;;3.25;0.90;;;18.70;59.30;20.80;94372.00;;;;10353451;28;45141;-60
2022/07/05 11:31:42;;;;;;;3.15;0.90;;;18.70;59.30;20.80;94379.00;;;;10354634;28;45217;-63
2022/07/05 11:37:23;;;;;;;5.25;0.85;;;18.70;59.30;20.80;94355.00;;;;10375847;28;45568;-63
2022/07/05 11:42:48;;;;;;;1.50;0.73;;;18.70;59.30;20.90;94367.00;;;;10379024;28;45273;-62
2022/07/05 11:48:16;;;;;;;6.22;1.23;;;18.80;59.30;20.90;94368.00;;;;10381719;28;45309;-62
2022/07/05 11:53:38;;;;;;;2.20;0.82;;;18.80;59.30;20.90;94373.00;;;;10377437;28;45326;-62
2022/07/05 11:58:58;;;;;;;6.63;1.00;;;18.80;59.40;20.90;94362.00;;;;10369167;28;45351;-63
2022/07/05 12:04:24;;;;;;;2.90;0.80;;;18.80;59.70;20.90;94369.00;;;;10352928;28;45232;-63
2022/07/05 12:15:26;;;;;;;2.88;0.90;;;18.80;59.40;20.90;94363.00;;;;10387907;28;45168;-64
2022/07/05 12:20:47;;;;;;;3.55;0.90;;;18.80;59.30;20.90;94358.00;;;;10388545;28;45217;-63
2022/07/05 12:26:09;;;;;;;4.53;0.80;;;18.80;59.30;20.90;94360.00;;;;10390367;28;45188;-63
2022/07/05 12:31:31;;;;;;;3.25;0.88;;;18.80;59.30;20.90;94342.00;;;;10353375;28;45710;-63
2022/07/05 12:36:52;;;;;;;1.50;0.70;;;18.70;59.20;20.90;94355.00;;;;10358793;28;45221;-63
2022/07/05 12:42:32;;;;;;;2.70;0.93;;;18.70;59.10;20.90;94355.00;;;;10359866;28;45169;-63
2022/07/05 12:47:54;;;;;;;2.55;0.70;;;18.70;59.10;20.90;94336.00;;;;10358097;28;45158;-63
2022/07/05 12:58:57;;;;;;;1.73;0.77;;;18.70;59.10;20.90;94335.00;;;;10362056;28;45792;-63
2022/07/05 13:04:18;;;;;;;2.95;0.82;;;18.80;59.20;20.90;94341.00;;;;10362820;28;45200;-64
2022/07/05 13:09:39;;;;;;;1.52;0.65;;;18.80;59.10;20.90;94333.00;;;;10357529;28;45758;-62
2022/07/05 13:15:02;;;;;;;2.65;0.70;;;18.80;59.10;20.90;94342.00;;;;10358522;28;45878;-62
2022/07/05 13:20:22;;;;;;;1.70;0.73;;;18.80;59.00;20.90;94337.00;;;;10358281;28;45246;-62
2022/07/05 13:25:43;;;;;;;2.58;0.70;;;18.80;58.90;20.90;94352.00;;;;10357551;28;45254;-63
2022/07/05 13:31:06;;;;;;;1.73;0.77;;;18.80;58.90;20.90;94345.00;;;;10358653;28;45242;-63
2022/07/05 13:36:27;;;;;;;3.03;0.80;;;18.80;58.90;20.90;94339.00;;;;10357491;28;45260;-62
2022/07/05 13:41:48;;;;;;;2.33;0.80;;;18.80;58.90;20.90;94343.00;;;;10358688;28;45079;-62
2022/07/05 13:47:10;;;;;;;2.00;0.80;;;18.80;58.80;20.90;94342.00;;;;10355378;28;45393;-62
2022/07/05 13:52:31;;;;;;;2.30;0.80;;;18.80;58.80;20.90;94337.00;;;;10357347;28;45350;-63
2022/07/05 13:57:51;;;;;;;3.25;0.77;;;18.80;58.90;20.90;94354.00;;;;10356759;28;45786;-64
2022/07/05 14:03:15;;;;;;;2.25;0.95;;;18.80;58.80;20.90;94349.00;;;;10356591;28;45846;-62
2022/07/05 14:08:36;;;;;;;2.22;0.68;;;18.80;58.90;20.90;94331.00;;;;10355348;28;45571;-63
2022/07/05 14:13:57;;;;;;;0.95;0.60;;;18.80;58.90;20.90;94336.00;;;;10356759;28;45764;-62
2022/07/05 14:19:19;;;;;;;2.08;0.70;;;18.80;58.80;21.00;94343.00;;;;10356748;28;45790;-62
2022/07/05 14:24:40;;;;;;;2.55;0.80;;;18.80;58.80;21.00;94333.00;;;;10356711;28;45129;-63
2022/07/05 14:30:02;;;;;;;1.98;0.70;;;18.80;58.70;21.00;94319.00;;;;10356457;28;45189;-63
2022/07/05 14:35:24;;;;;;;1.33;0.63;;;18.80;58.70;21.00;94318.00;;;;10356342;28;45153;-63
2022/07/05 14:40:44;;;;;;;2.42;0.75;;;18.80;58.60;21.00;94335.00;;;;10356268;28;45157;-63
2022/07/05 14:46:07;;;;;;;2.00;0.82;;;18.80;58.60;21.00;94319.00;;;;10355538;28;45221;-62
2022/07/05 14:51:29;;;;;;;1.67;0.70;;;18.90;58.70;21.00;94322.00;;;;10355860;28;45140;-62
2022/07/05 14:56:50;;;;;;;2.08;0.85;;;18.90;58.60;21.00;94318.00;;;;10355296;28;45377;-63
2022/07/05 15:02:11;;;;;;;1.92;0.70;;;18.90;58.60;21.00;94312.00;;;;10355350;28;45213;-63
2022/07/05 15:07:33;;;;;;;1.50;0.73;;;18.90;58.60;21.10;94293.00;;;;10354837;28;45358;-63
2022/07/05 15:12:54;;;;;;;1.92;0.80;;;18.90;58.50;21.10;94307.00;;;;10355149;28;46080;-64
2022/07/05 15:18:15;;;;;;;2.40;0.80;;;19.00;58.50;21.10;94306.00;;;;10354794;28;45213;-63
2022/07/05 15:23:37;;;;;;;4.25;0.63;;;19.00;58.40;21.10;94306.00;;;;10354581;28;45205;-63
2022/07/05 15:29:04;;;;;;;1.55;0.70;;;19.00;58.40;21.10;94303.00;;;;10354321;28;45177;-63
2022/07/05 15:34:25;;;;;;;1.92;0.65;;;19.00;58.30;21.10;94309.00;;;;10354053;28;45248;-62
2022/07/05 15:39:47;;;;;;;2.28;0.90;;;19.00;58.20;21.10;94305.00;;;;10354293;28;45638;-62
2022/07/05 15:45:08;;;;;;;2.00;0.65;;;19.00;58.20;21.20;94304.00;;;;10352371;28;45856;-63
2022/07/05 15:50:29;;;;;;;2.53;0.70;;;19.00;58.10;21.20;94306.00;;;;10353870;28;45282;-65
2022/07/05 15:55:51;;;;;;;1.05;0.60;;;19.10;58.10;21.30;94308.00;;;;10361273;28;45427;-64
2022/07/05 16:01:12;;;;;;;2.55;0.80;;;19.20;57.90;21.30;94302.00;;;;10392437;28;45197;-64
2022/07/05 16:06:32;;;;;;;2.33;0.60;;;19.20;57.90;21.30;94286.00;;;;10392800;28;45122;-64
2022/07/05 16:11:54;;;;;;;2.03;0.68;;;19.20;57.90;21.30;94288.00;;;;10399591;28;45187;-64
2022/07/05 16:17:15;;;;;;;4.25;0.70;;;19.20;58.00;21.30;94286.00;;;;10399273;28;45430;-64
2022/07/05 16:22:35;;;;;;;1.95;0.77;;;19.20;57.80;21.40;94285.00;;;;10400710;28;45218;-64
2022/07/05 16:27:57;;;;;;;2.03;0.77;;;19.30;57.90;21.40;94278.00;;;;10399095;28;45828;-65
2022/07/05 16:33:18;;;;;;;1.40;0.50;;;19.30;57.70;21.30;94286.00;;;;10397614;28;45197;-64
2022/07/05 16:38:40;;;;;;;1.35;0.60;;;19.20;57.70;21.40;94278.00;;;;10397798;28;45695;-65
2022/07/05 16:44:02;;;;;;;1.40;0.60;;;19.20;57.70;21.40;94281.00;;;;10400181;28;45353;-64
2022/07/05 16:49:23;;;;;;;1.75;0.75;;;19.30;57.60;21.40;94276.00;;;;10386638;28;45255;-64
2022/07/05 16:54:44;;;;;;;2.70;0.50;;;19.30;57.50;21.40;94294.00;;;;10382790;28;45202;-64
2022/07/05 17:00:08;;;;;;;1.67;0.60;;;19.30;57.40;21.50;94291.00;;;;10362743;28;45189;-64
2022/07/05 17:05:29;;;;;;;1.30;0.70;;;19.30;57.40;21.50;94277.00;;;;10352467;28;45233;-64
2022/07/05 17:10:50;;;;;;;1.15;0.57;;;19.40;57.30;21.50;94277.00;;;;10370820;28;45536;-65
2022/07/05 17:16:13;;;;;;;1.25;0.52;;;19.40;57.30;21.50;94284.00;;;;10381100;28;45196;-65
2022/07/05 17:21:35;;;;;;;2.08;0.70;;;19.40;57.30;21.50;94275.00;;;;10381278;28;45190;-65
2022/07/05 17:26:55;;;;;;;4.22;0.60;;;19.40;57.20;21.50;94298.00;;;;10397227;28;45168;-65
2022/07/05 17:32:17;;;;;;;1.65;0.47;;;19.30;57.30;21.50;94302.00;;;;10398552;28;45685;-65
2022/07/05 17:37:38;;;;;;;1.48;0.63;;;19.40;57.30;21.50;94303.00;;;;10396786;28;45284;-66
2022/07/05 17:42:58;;;;;;;1.33;0.40;;;19.40;57.30;21.50;94311.00;;;;10396677;28;45232;-65
2022/07/05 17:48:21;;;;;;;0.88;0.50;;;19.40;57.30;21.50;94313.00;;;;10396746;28;45438;-66
2022/07/05 17:53:42;;;;;;;1.15;0.57;;;19.40;57.30;21.40;94312.00;;;;10380682;28;46159;-66
2022/07/05 17:59:03;;;;;;;1.58;0.43;;;19.30;57.40;21.40;94326.00;;;;10374669;28;45246;-65
2022/07/05 18:04:26;;;;;;;0.95;0.50;;;19.30;57.50;21.40;94321.00;;;;10394059;28;45675;-65
2022/07/05 18:09:46;;;;;;;1.60;0.60;;;19.30;57.60;21.40;94313.00;;;;10395713;28;45226;-66
2022/07/05 18:15:08;;;;;;;0.98;0.60;;;19.20;57.60;21.30;94315.00;;;;10397563;28;45151;-65
2022/07/05 18:20:30;;;;;;;1.75;0.70;;;19.20;57.60;21.30;94332.00;;;;10397124;28;45768;-64
2022/07/05 18:25:51;;;;;;;1.05;0.55;;;19.20;57.60;21.30;94330.00;;;;10394837;28;45202;-65
2022/07/05 18:31:11;;;;;;;2.00;0.60;;;19.20;58.30;21.30;94321.00;;;;10395683;28;45777;-64
2022/07/05 18:36:33;;;;;;;1.08;0.40;;;19.10;57.60;21.20;94320.00;;;;10395840;28;45789;-65
2022/07/05 18:41:54;;;;;;;1.25;0.55;;;19.10;57.60;21.20;94327.00;;;;10396027;28;45180;-65
2022/07/05 18:47:14;;;;;;;0.70;0.55;;;19.10;57.80;21.30;94329.00;;;;10394194;28;45124;-66
2022/07/05 18:52:38;;;;;;;2.08;0.60;;;19.10;57.80;21.20;94340.00;;;;10380951;28;45235;-65
2022/07/05 18:57:58;;;;;;;1.55;0.40;;;19.10;57.90;21.20;94343.00;;;;10376154;28;45191;-65
2022/07/05 19:03:19;;;;;;;1.17;0.50;;;19.00;57.90;21.20;94335.00;;;;10390190;28;45486;-65
2022/07/05 19:14:20;;;;;;;1.38;0.40;;;19.00;57.90;21.10;94336.00;;;;10393815;28;45148;-65
2022/07/05 19:19:41;;;;;;;1.13;0.50;;;18.90;57.90;21.10;94349.00;;;;10392498;28;45681;-65
2022/07/05 19:25:04;;;;;;;2.13;0.40;;;18.90;57.90;21.10;94353.00;;;;10394081;28;45760;-65
2022/07/05 19:30:25;;;;;;;0.90;0.50;;;18.90;57.90;21.10;94360.00;;;;10393071;28;45085;-66
2022/07/05 19:35:46;;;;;;;0.73;0.50;;;18.90;57.90;21.00;94359.00;;;;10392414;28;45217;-65
2022/07/05 19:41:08;;;;;;;0.60;0.30;;;18.90;57.90;21.00;94368.00;;;;10393017;28;45491;-65
2022/07/05 19:46:28;;;;;;;0.68;0.50;;;18.90;57.90;21.00;94369.00;;;;10393053;28;45129;-65
2022/07/05 19:51:49;;;;;;;0.45;0.40;;;18.90;57.90;21.00;94362.00;;;;10393828;28;45760;-65
2022/07/05 19:57:11;;;;;;;1.50;0.65;;;18.80;57.90;21.00;94387.00;;;;10391802;28;45184;-65
2022/07/05 20:02:32;;;;;;;0.93;0.50;;;18.80;57.90;21.00;94391.00;;;;10390718;28;45233;-65
2022/07/05 20:07:52;;;;;;;0.75;0.50;;;18.80;58.10;21.00;94394.00;;;;10388024;28;45710;-65
2022/07/05 20:13:14;;;;;;;0.85;0.40;;;18.90;58.10;21.00;94392.00;;;;10392474;28;45236;-64
2022/07/05 20:18:35;;;;;;;0.40;0.40;;;18.90;58.00;21.00;94399.00;;;;10393633;28;45317;-65
2022/07/05 20:23:56;;;;;;;0.77;0.50;;;18.80;58.10;21.00;94396.00;;;;10393660;28;45183;-65
2022/07/05 20:29:18;;;;;;;1.27;0.50;;;18.80;58.00;21.00;94411.00;;;;10392890;28;45793;-64
2022/07/05 20:34:41;;;;;;;1.15;0.40;;;18.80;58.00;20.90;94419.00;;;;10393304;28;45254;-65
2022/07/05 20:40:02;;;;;;;0.90;0.50;;;18.80;58.00;20.90;94419.00;;;;10393789;28;45407;-65
2022/07/05 20:45:24;;;;;;;0.77;0.40;;;18.80;58.00;20.90;94432.00;;;;10393002;28;45777;-65
2022/07/05 20:50:45;;;;;;;0.60;0.30;;;18.70;58.00;20.90;94422.00;;;;10393436;28;45759;-65
2022/07/05 20:56:06;;;;;;;1.35;0.57;;;18.70;58.10;20.90;94440.00;;;;10397983;28;45100;-65
2022/07/05 21:01:29;;;;;;;0.40;0.40;;;18.70;58.10;20.90;94436.00;;;;10400054;28;45767;-65
2022/07/05 21:06:50;;;;;;;0.60;0.40;;;18.70;58.10;20.80;94427.00;;;;10399119;28;45246;-64
2022/07/05 21:12:11;;;;;;;0.30;0.30;;;18.70;58.10;20.80;94426.00;;;;10399653;28;45864;-65
2022/07/05 21:17:34;;;;;;;0.50;0.40;;;18.70;58.10;20.80;94442.00;;;;10398854;28;45163;-65
2022/07/05 21:22:55;;;;;;;0.43;0.30;;;18.70;58.10;20.80;94456.00;;;;10399157;28;45772;-65
2022/07/05 21:28:15;;;;;;;1.80;0.50;;;18.60;58.10;20.80;94459.00;;;;10399095;28;45111;-65
2022/07/05 21:33:37;;;;;;;0.40;0.40;;;18.60;58.10;20.80;94447.00;;;;10398336;28;45197;-65
2022/07/05 21:38:58;;;;;;;0.90;0.50;;;18.60;58.10;20.80;94462.00;;;;10398480;28;45269;-65
2022/07/05 21:44:18;;;;;;;0.90;0.50;;;18.60;58.00;20.80;94462.00;;;;10397713;28;45798;-65
2022/07/05 21:49:40;;;;;;;0.82;0.50;;;18.60;58.70;20.70;94462.00;;;;10397878;28;45173;-65
2022/07/05 21:55:01;;;;;;;0.95;0.50;;;18.60;58.00;20.70;94466.00;;;;10397529;28;45237;-65
2022/07/05 22:06:08;;;;;;;0.50;0.40;;;18.60;57.90;20.70;94473.00;;;;10347746;28;45177;-65
2022/07/05 22:11:38;;;;;;;1.23;0.50;;;18.50;57.90;20.70;94475.00;;;;10398006;28;46090;-65
2022/07/05 22:16:59;;;;;;;0.47;0.47;;;18.60;58.00;20.70;94475.00;;;;10397089;28;45725;-65
2022/07/05 22:22:21;;;;;;;0.50;0.40;;;18.60;57.90;20.70;94482.00;;;;10397685;28;45160;-65
2022/07/05 22:27:41;;;;;;;0.60;0.50;;;18.50;57.80;20.70;94480.00;;;;10396798;28;45223;-65
2022/07/05 22:33:02;;;;;;;0.40;0.40;;;18.50;57.90;20.70;94476.00;;;;10396544;28;45364;-65
2022/07/05 22:38:23;;;;;;;0.50;0.30;;;18.50;57.90;20.70;94479.00;;;;10396553;28;45705;-65
2022/07/05 22:43:44;;;;;;;0.55;0.40;;;18.50;57.80;20.70;94483.00;;;;10396250;28;45681;-65
2022/07/05 22:49:04;;;;;;;0.65;0.50;;;18.50;57.70;20.70;94485.00;;;;10396049;28;45224;-65
2022/07/05 22:54:27;;;;;;;0.60;0.40;;;18.50;57.70;20.70;94478.00;;;;10395598;28;45863;-64
2022/07/05 22:59:47;;;;;;;0.68;0.50;;;18.50;57.80;20.70;94488.00;;;;10395738;28;45108;-65
2022/07/05 23:05:09;;;;;;;0.52;0.30;;;18.50;57.70;20.60;94474.00;;;;10395706;28;45112;-64
2022/07/05 23:10:31;;;;;;;0.75;0.50;;;18.50;57.70;20.60;94496.00;;;;10395675;28;45212;-64
2022/07/05 23:15:51;;;;;;;1.27;0.50;;;18.50;57.70;20.60;94499.00;;;;10395021;28;45208;-64
2022/07/05 23:21:12;;;;;;;0.73;0.30;;;18.50;57.70;20.60;94498.00;;;;10395817;28;45142;-64
2022/07/05 23:26:34;;;;;;;0.60;0.38;;;18.50;57.60;20.60;94501.00;;;;10394724;28;45854;-65
2022/07/05 23:31:55;;;;;;;0.40;0.40;;;18.50;57.60;20.60;94498.00;;;;10395351;28;45122;-65
2022/07/05 23:37:16;;;;;;;0.55;0.30;;;18.50;57.60;20.60;94497.00;;;;10394465;28;45106;-64
2022/07/05 23:42:39;;;;;;;1.05;0.38;;;18.40;57.60;20.60;94499.00;;;;10394679;28;45109;-65
2022/07/05 23:47:59;;;;;;;0.35;0.35;;;18.50;57.70;20.60;94496.00;;;;10394496;28;45810;-65
2022/07/05 23:53:20;;;;;;;0.50;0.50;;;18.50;57.70;20.60;94492.00;;;;10393988;28;45193;-65
2022/07/05 23:58:41;;;;;;;0.40;0.30;;;18.50;57.60;20.60;94494.00;;;;10420463;22;46019;-68
